Nearby METAR Reports

 

PAEN - Kenai, Alaska, USA
Distance from station: ESE 2mi, 4km
Updated: Sun, 27-Sep-2020 6:53pm AKDT
Overcast
Overcast
 Wind from NNE
Wind: NNE 8 mph , 13 km/h
Temperature: 54°F , 12°C
Dew Point: 41°F , 5°C
Humidity: 63%
Barometer: 28.99 inHg , 981.7 hPa
Clouds: Overcast
Visibility: 10 miles , 16 km
Cloud details: Overcast 6000 ft
2020/09/28 02:53 PAEN 280253Z 03007KT 10SM OVC060 12/05 A2899 RMK AO2 RAB42E51 SLP817 P0000 60000 T01170050 53017
PASX - Soldotna, Alaska, USA
Distance from station: SE 12mi, 19km
Updated: Sun, 27-Sep-2020 7:19pm AKDT
Haze, Overcast
Haze, Overcast
 Wind from calm
Wind: Calm
Temperature: 52°F , 11°C
Dew Point: 41°F , 5°C
Humidity: 67%
Barometer: 29.02 inHg , 982.7 hPa
Summary: Haze
Clouds: Overcast
Visibility: 1 1/4 miles , 2 km
Cloud details: Overcast 7500 ft
2020/09/28 03:19 PASX 280319Z AUTO 00000KT 1 1/4SM HZ OVC075 11/05 A2902 RMK AO2
 
PANC - Anchorage Intl, Alaska, USA
Distance from station: NE 59mi, 96km
Updated: Sun, 27-Sep-2020 6:53pm AKDT
Mostly cloudy
Mostly cloudy
 Wind from S
Wind: S 8 mph , 13 km/h
Temperature: 52°F , 11°C
Dew Point: 43°F , 6°C
Humidity: 72%
Barometer: 28.97 inHg , 981 hPa
Clouds: Mostly cloudy
Visibility: 10 miles , 16 km
Cloud details: Few Clouds 7000 ft
Partly cloudy 9500 ft
Mostly cloudy 11000 ft
Mostly cloudy 25000 ft
2020/09/28 02:53 PANC 280253Z 17007KT 10SM FEW070 SCT095 BKN110 BKN250 11/06 A2897 RMK AO2 SLP812 VIRGA DSNT NW T01110056 51013
PALH - Anchorage/Lake H, Alaska, USA
Distance from station: NE 61mi, 99km
Updated: Sun, 27-Sep-2020 6:53pm AKDT
Overcast
Overcast
 Wind from SE
Wind: SE 5 mph , 7 km/h
Temperature: 52°F , 11°C
Dew Point: 43°F , 6°C
Humidity: 72%
Barometer: 28.99 inHg , 981.7 hPa
Clouds: Overcast
Visibility: 10 miles , 16 km
Cloud details: Overcast 11000 ft
2020/09/28 02:53 PALH 280253Z 13004KT 10SM OVC110 11/06 A2899 RMK AO2 SLP816 T01110056 53013
 
PAHO - Homer, Alaska, USA
Distance from station: S 66mi, 106km
Updated: Sun, 27-Sep-2020 6:53pm AKDT
Light rain, Overcast
Light rain, Overcast
 Wind from calm
Wind: Calm
Temperature: 52°F , 11°C
Dew Point: 45°F , 7°C
Humidity: 77%
Barometer: 28.99 inHg , 981.7 hPa
Summary: Light rain
Clouds: Overcast
Visibility: 10 miles , 16 km
Cloud details: Partly cloudy 5500 ft
Overcast 7000 ft
2020/09/28 02:53 PAHO 280253Z 00000KT 10SM -RA SCT055 OVC070 11/07 A2899
PAMR - Anchorage/Merril, Alaska, USA
Distance from station: NE 66mi, 106km
Updated: Sun, 27-Sep-2020 6:53pm AKDT
Overcast
Overcast
 Wind from E
Wind: E 3 mph , 6 km/h
Temperature: 54°F , 12°C
Dew Point: 41°F , 5°C
Humidity: 63%
Barometer: 28.97 inHg , 981 hPa
Clouds: Overcast
Visibility: 10 miles , 16 km
Cloud details: Overcast 11000 ft
2020/09/28 02:53 PAMR 280253Z 09003KT 10SM OVC110 12/05 A2897 RMK AO2 SLP812 T01170050 51012
 
PAED - Elmendorf Afb, Alaska, USA
Distance from station: NE 69mi, 110km
Updated: Sun, 27-Sep-2020 6:56pm AKDT
Overcast
Overcast
 Wind from calm
Wind: Calm
Temperature: 54°F , 12°C
Dew Point: 41°F , 5°C
Humidity: 63%
Barometer: 28.98 inHg , 981.4 hPa
Clouds: Overcast
Visibility: 10 miles , 16 km
Cloud details: Overcast 11000 ft
2020/09/28 02:56 PAED 280256Z AUTO 00000KT 10SM OVC110 12/05 A2898 RMK AO2 SLP809 T01160052 52013 $
PAWD - Seward, Alaska, USA
Distance from station: ESE 71mi, 115km
Updated: Sun, 27-Sep-2020 6:53pm AKDT
Overcast
Overcast
 Wind from N
Wind: N 12 mph , 19 km/h, Gust: 24 mph , 39 km/h
Temperature: 52°F , 11°C
Dew Point: 39°F , 4°C
Humidity: 62%
Barometer: 28.96 inHg , 980.7 hPa
Clouds: Overcast
Visibility: 10 miles , 16 km
Cloud details: Overcast 8500 ft
2020/09/28 02:53 PAWD 280253Z AUTO 35010G21KT 10SM OVC085 11/04 A2896 RMK AO2 SLP805 60000 T01110044 53018 TSNO
 
PASC - Deadhorse, Alaska, USA
Distance from station: ENE 670mi, 1078km
Updated: Sun, 27-Sep-2020 6:53pm AKDT
Light snow, Mist, Overcast
Light snow, Mist, Overcast
 Wind from NE
Wind: NE 9 mph , 15 km/h
Temperature: 30°F , -1°C
Wind Chill: 22°F , -6°C
Dew Point: 28°F , -2°C
Humidity: 93%
Barometer: 29.68 inHg , 1005.1 hPa
Summary: Light snow, Mist
Clouds: Overcast
Visibility: 9 miles , 14 km
Cloud details: Few Clouds 500 ft
Mostly cloudy 1100 ft
Overcast 2200 ft
2020/09/28 02:53 PASC 280253Z 05008KT 9SM -SN BR FEW005 BKN011 OVC022 M01/M02 A2968 RMK AO2 SLP053 P0000 60000 T10061017 56014
PAAD - Point Thomson, Alaska, USA
Distance from station: ENE 680mi, 1094km
Updated: Sun, 27-Sep-2020 7:15pm AKDT
Overcast
Overcast
 Wind from E
Wind: E 7 mph , 11 km/h
Temperature: 30°F , -1°C
Wind Chill: 23°F , -5°C
Dew Point: 27°F , -3°C
Humidity: 86%
Barometer: 29.68 inHg , 1005.1 hPa
Clouds: Overcast
Visibility: 10 miles , 16 km
Cloud details: Mostly cloudy 1400 ft
Overcast 2600 ft
2020/09/28 03:15 PAAD 280315Z AUTO 08006KT 10SM BKN014 OVC026 M01/M03 A2968 RMK AO2 T10151028


kenaipeople.com website

Dans Automotive

Lower Peninsula Power Sports

Freddies RoadHouse

Alaska Weather Net